Disclaimer

Please do not use the information listed here in-flight or in-navigation, as they are not provided to us by the airports but are provided by volunteers, so they might be outdated.

Search


Regions


Airport information page

Radio informations:
VALLARTA TWR - 118.5 MHz
VALLARTA APP - 121.3 MHz

Airport informations:
Latitude: 20° 40' 48.30" N
Longitude: 105° 15' 15.00" W
Elevation: 23 feet - 7 meters
Operating hours: 24 hour operations
Operating agency: Civil government, landing fees and diplomatic clearance may be required
Timezone: UTC-6(-5DT) - First Sunday in April to the last Saturday in October
Fuel: Jet A1+, Jet A1 with icing inhibitor.

Jet A1, without icing nhibitor.

100/130 octane gasoline, leaded, MIL-L-5572F (GREEN)

100/130 MIL Spec, low lead, aviation gasoline (BLUE)

Runway information:
04/22 - 10171 x 148 feet< - >3100 x 45 meters

Recent METARs:
MMPR 191641Z 00000KT 15SM SCT250 25/16 A3002 RMK 8/001
MMPR 191641Z 00000KT 15SM SCT250 25/16 A3002 RMK 8/001
MMPR 191745Z 21005KT 15SM SCT250 27/16 A3000 RMK SLP157 52002 915 8/001

Airport on the map: